createdAt,value
2019-02-04T00:01:08.667Z,86.71
2019-02-04T00:03:37.102Z,86.73
2019-02-04T00:06:05.544Z,86.59
2019-02-04T00:08:34.321Z,86.47
2019-02-04T00:11:02.769Z,86.17
2019-02-04T00:13:31.483Z,86.14
2019-02-04T00:15:59.950Z,86.35
2019-02-04T00:18:28.387Z,86.29
2019-02-04T00:20:57.211Z,86.05
2019-02-04T00:23:25.642Z,86.36
2019-02-04T00:25:54.109Z,86.31
2019-02-04T00:28:22.540Z,87.36
2019-02-04T00:30:50.971Z,88.25
2019-02-04T00:33:19.425Z,88.52
2019-02-04T00:35:47.866Z,88.52
2019-02-04T00:38:16.322Z,88.21
2019-02-04T00:40:44.772Z,88.39
2019-02-04T00:43:13.859Z,88.14
2019-02-04T00:45:42.345Z,87.80
2019-02-04T00:48:10.805Z,87.42
2019-02-04T00:50:39.266Z,87.36
2019-02-04T00:53:08.018Z,87.34
2019-02-04T00:55:36.498Z,87.69
2019-02-04T00:58:04.956Z,87.82
2019-02-04T01:00:33.747Z,87.92
2019-02-04T01:03:02.258Z,88.15
2019-02-04T01:05:30.655Z,88.26
2019-02-04T01:07:59.908Z,88.21
2019-02-04T01:10:28.353Z,88.07
2019-02-04T01:12:56.805Z,87.94
2019-02-04T01:15:25.266Z,87.88
2019-02-04T01:17:54.239Z,87.80
2019-02-04T01:20:25.540Z,87.86
2019-02-04T01:22:54.617Z,88.65
2019-02-04T01:25:23.054Z,88.85
2019-02-04T01:27:51.499Z,88.87
2019-02-04T01:30:20.866Z,88.83
2019-02-04T01:32:49.835Z,88.69
2019-02-04T01:35:18.405Z,88.51
2019-02-04T01:37:47.500Z,88.49
2019-02-04T01:40:20.935Z,88.56
2019-02-04T01:42:49.903Z,88.38
2019-02-04T01:45:19.001Z,88.15
2019-02-04T01:47:47.438Z,88.17
2019-02-04T01:50:18.018Z,88.08
2019-02-04T01:52:46.457Z,87.84
2019-02-04T01:55:14.933Z,87.94
2019-02-04T01:57:43.868Z,87.80
2019-02-04T02:00:15.653Z,87.49
2019-02-04T02:02:44.177Z,87.69
2019-02-04T02:05:12.994Z,88.49
2019-02-04T02:07:41.429Z,88.82
2019-02-04T02:10:11.379Z,88.97
2019-02-04T02:12:40.133Z,88.97
2019-02-04T02:15:08.601Z,88.98
2019-02-04T02:17:37.037Z,88.96
2019-02-04T02:20:05.900Z,88.79
2019-02-04T02:22:34.344Z,88.56
2019-02-04T02:25:03.023Z,88.24
2019-02-04T02:27:31.467Z,88.12
2019-02-04T02:29:59.917Z,87.89
2019-02-04T02:32:28.353Z,87.85
2019-02-04T02:34:57.190Z,88.07
2019-02-04T02:37:25.617Z,88.17
2019-02-04T02:39:54.069Z,88.02
2019-02-04T02:42:22.509Z,87.98
2019-02-04T02:44:50.950Z,87.80
2019-02-04T02:47:19.382Z,87.82
2019-02-04T02:49:47.831Z,87.82
2019-02-04T02:52:16.603Z,87.67
2019-02-04T02:54:45.049Z,87.76
2019-02-04T02:57:13.742Z,87.96
2019-02-04T02:59:44.687Z,88.09
2019-02-04T03:02:13.469Z,87.75
2019-02-04T03:04:41.912Z,87.73
2019-02-04T03:07:10.354Z,87.62
2019-02-04T03:09:39.057Z,87.64
2019-02-04T03:12:07.502Z,87.70
2019-02-04T03:14:36.284Z,87.44
2019-02-04T03:17:07.295Z,87.26
2019-02-04T03:19:35.755Z,87.11
2019-02-04T03:22:05.626Z,87.09
2019-02-04T03:24:34.613Z,86.98
2019-02-04T03:27:03.053Z,87.17
2019-02-04T03:29:31.506Z,86.91
2019-02-04T03:31:59.947Z,86.97
2019-02-04T03:34:28.393Z,87.09
2019-02-04T03:36:56.830Z,87.10
2019-02-04T03:39:25.269Z,87.10
2019-02-04T03:41:54.010Z,87.20
2019-02-04T03:44:22.452Z,87.16
2019-02-04T03:46:50.922Z,86.96
2019-02-04T03:49:19.375Z,86.76
2019-02-04T03:51:47.832Z,87.06
2019-02-04T03:54:16.588Z,87.22
2019-02-04T03:56:45.049Z,86.79
2019-02-04T03:59:13.502Z,87.08
2019-02-04T04:01:41.981Z,86.99
2019-02-04T04:04:10.421Z,86.97
2019-02-04T04:06:38.891Z,86.98
2019-02-04T04:09:07.848Z,86.85
2019-02-04T04:11:36.296Z,86.53
2019-02-04T04:14:05.050Z,86.34
2019-02-04T04:16:33.498Z,86.27
2019-02-04T04:19:01.944Z,86.25
2019-02-04T04:21:30.555Z,86.50
2019-02-04T04:23:58.967Z,86.46
2019-02-04T04:26:27.419Z,86.35
2019-02-04T04:28:56.141Z,86.38
2019-02-04T04:31:24.592Z,86.66
2019-02-04T04:33:53.271Z,86.89
2019-02-04T04:36:22.291Z,86.90
2019-02-04T04:38:50.743Z,86.85
2019-02-04T04:41:19.188Z,86.74
2019-02-04T04:43:47.853Z,86.45
2019-02-04T04:46:16.307Z,86.24
2019-02-04T04:48:44.752Z,86.09
2019-02-04T04:51:13.574Z,85.89
2019-02-04T04:53:42.027Z,85.84
2019-02-04T04:56:10.473Z,85.86
2019-02-04T04:58:40.742Z,85.73
2019-02-04T05:01:09.311Z,85.69
2019-02-04T05:03:37.738Z,85.52
2019-02-04T05:06:06.187Z,85.50
2019-02-04T05:08:34.896Z,85.41
2019-02-04T05:11:03.672Z,85.56
2019-02-04T05:13:32.398Z,85.46
2019-02-04T05:16:01.163Z,85.42
2019-02-04T05:18:37.784Z,85.40
2019-02-04T05:21:01.261Z,85.38
2019-02-04T05:23:30.298Z,85.38
2019-02-04T05:25:58.770Z,85.22
2019-02-04T05:28:27.558Z,84.78
2019-02-04T05:30:55.980Z,84.72
2019-02-04T05:33:24.417Z,84.63
2019-02-04T05:35:53.122Z,84.29
2019-02-04T05:38:21.840Z,84.36
2019-02-04T05:40:50.269Z,84.21
2019-02-04T05:43:18.801Z,84.22
2019-02-04T05:45:47.235Z,84.16
2019-02-04T05:48:16.015Z,83.90
2019-02-04T05:50:44.440Z,83.58
2019-02-04T05:53:12.880Z,83.57
2019-02-04T05:55:41.305Z,83.98
2019-02-04T05:58:09.754Z,84.13
2019-02-04T06:00:44.450Z,84.34
2019-02-04T06:03:13.147Z,83.96
2019-02-04T06:05:41.964Z,84.46
2019-02-04T06:08:10.404Z,84.32
2019-02-04T06:10:38.846Z,84.51
2019-02-04T06:13:07.296Z,84.48
2019-02-04T06:15:36.068Z,84.59
2019-02-04T06:18:05.070Z,84.48
2019-02-04T06:20:33.770Z,84.13
2019-02-04T06:23:02.218Z,83.96
2019-02-04T06:25:30.908Z,83.95
2019-02-04T06:27:59.698Z,83.75
2019-02-04T06:30:28.148Z,83.87
2019-02-04T06:32:56.597Z,83.85
2019-02-04T06:35:25.037Z,83.51
2019-02-04T06:37:53.527Z,83.18
2019-02-04T06:40:22.103Z,82.87
2019-02-04T06:42:50.584Z,82.77
2019-02-04T06:45:19.385Z,83.01
2019-02-04T06:47:47.816Z,83.00
2019-02-04T06:50:16.984Z,83.11
2019-02-04T06:52:45.448Z,83.34
2019-02-04T06:55:19.639Z,83.14
2019-02-04T06:57:48.050Z,82.90
2019-02-04T07:00:16.848Z,82.81
2019-02-04T07:02:45.360Z,82.76
2019-02-04T07:05:14.092Z,82.72
2019-02-04T07:07:42.871Z,82.83
2019-02-04T07:10:13.944Z,82.69
2019-02-04T07:12:42.502Z,82.88
2019-02-04T07:15:11.239Z,83.12
2019-02-04T07:17:39.983Z,82.80
2019-02-04T07:20:10.831Z,82.73
2019-02-04T07:22:39.300Z,82.80
2019-02-04T07:25:09.327Z,82.69
2019-02-04T07:27:37.764Z,82.78
2019-02-04T07:30:10.862Z,82.48
2019-02-04T07:32:39.557Z,82.45
2019-02-04T07:35:09.515Z,82.34
2019-02-04T07:37:37.993Z,82.51
2019-02-04T07:40:10.455Z,82.09
2019-02-04T07:42:39.207Z,82.02
2019-02-04T07:45:08.251Z,82.12
2019-02-04T07:47:36.679Z,81.90
2019-02-04T07:50:06.183Z,81.82
2019-02-04T07:52:34.624Z,81.50
2019-02-04T07:55:03.353Z,81.27
2019-02-04T07:57:31.795Z,80.83
2019-02-04T08:00:00.618Z,80.66
2019-02-04T08:02:29.051Z,80.08
2019-02-04T08:04:59.668Z,79.86
2019-02-04T08:07:28.426Z,79.31
2019-02-04T08:09:57.213Z,79.13
2019-02-04T08:12:25.892Z,78.42
2019-02-04T08:14:54.359Z,77.99
2019-02-04T08:17:22.803Z,77.42
2019-02-04T08:19:51.693Z,76.74
2019-02-04T08:22:20.137Z,76.38
2019-02-04T08:24:48.593Z,75.21
2019-02-04T08:27:17.029Z,74.87
2019-02-04T08:29:45.468Z,74.31
2019-02-04T08:32:14.257Z,73.64
2019-02-04T08:34:42.690Z,73.44
2019-02-04T08:37:11.726Z,73.33
2019-02-04T08:39:40.429Z,73.14
2019-02-04T08:42:08.866Z,71.72
2019-02-04T08:44:37.299Z,72.08
2019-02-04T08:47:05.748Z,70.55
2019-02-04T08:49:34.185Z,70.16
2019-02-04T08:52:02.801Z,69.11
2019-02-04T08:54:31.518Z,68.93
2019-02-04T08:56:59.969Z,67.17
2019-02-04T08:59:28.670Z,66.73
2019-02-04T09:01:57.121Z,65.85
2019-02-04T09:04:25.558Z,64.47
2019-02-04T09:06:53.994Z,64.42
2019-02-04T09:09:22.848Z,64.67
2019-02-04T09:11:51.292Z,64.31
2019-02-04T09:14:20.060Z,63.81
2019-02-04T09:16:48.862Z,63.51
2019-02-04T09:19:17.377Z,62.83
2019-02-04T09:21:46.154Z,62.31
2019-02-04T09:24:14.844Z,61.92
2019-02-04T09:26:43.557Z,62.72
2019-02-04T09:29:11.985Z,63.09
2019-02-04T09:31:40.759Z,62.71
2019-02-04T09:34:09.422Z,62.85
2019-02-04T09:36:38.951Z,62.57
2019-02-04T09:39:09.087Z,61.38
2019-02-04T09:41:38.367Z,62.07
2019-02-04T09:44:07.057Z,63.33
2019-02-04T09:46:35.496Z,62.15
2019-02-04T09:49:04.227Z,62.33
2019-02-04T09:51:32.748Z,62.61
2019-02-04T09:54:01.187Z,62.82
2019-02-04T09:56:29.682Z,62.97
2019-02-04T09:58:58.469Z,61.60
2019-02-04T10:01:26.933Z,61.61
2019-02-04T10:03:55.430Z,62.25
2019-02-04T10:06:23.866Z,60.98
2019-02-04T10:08:52.290Z,62.40
2019-02-04T10:11:21.062Z,62.98
2019-02-04T10:13:49.852Z,61.59
2019-02-04T10:16:18.544Z,60.45
2019-02-04T10:18:47.222Z,60.82
2019-02-04T10:21:15.718Z,60.65
2019-02-04T10:23:44.384Z,61.23
2019-02-04T10:26:12.810Z,60.99
2019-02-04T10:28:41.753Z,61.85
2019-02-04T10:31:10.261Z,60.52
2019-02-04T10:33:39.048Z,60.30
2019-02-04T10:36:07.477Z,61.50
2019-02-04T10:38:36.043Z,61.74
2019-02-04T10:41:04.464Z,62.08
2019-02-04T10:43:33.247Z,60.65
2019-02-04T10:46:04.589Z,60.64
2019-02-04T10:48:32.169Z,60.35
2019-02-04T10:51:00.588Z,59.51
2019-02-04T10:53:29.336Z,60.73
2019-02-04T10:55:57.748Z,61.74
2019-02-04T10:58:26.908Z,61.86
2019-02-04T11:00:55.588Z,60.99
2019-02-04T11:03:24.029Z,60.81
2019-02-04T11:05:52.884Z,60.90
2019-02-04T11:08:21.889Z,60.00
2019-02-04T11:10:50.326Z,59.95
2019-02-04T11:13:19.019Z,60.20
2019-02-04T11:15:48.066Z,60.90
2019-02-04T11:18:16.629Z,60.29
2019-02-04T11:20:57.139Z,61.67
2019-02-04T11:23:15.896Z,60.37
2019-02-04T11:25:44.605Z,61.36
2019-02-04T11:28:14.068Z,61.26
2019-02-04T11:30:54.890Z,61.19
2019-02-04T11:33:23.440Z,60.94
2019-02-04T11:35:52.145Z,62.23
2019-02-04T11:38:20.576Z,62.62
2019-02-04T11:40:49.017Z,62.02
2019-02-04T11:43:17.786Z,61.28
2019-02-04T11:45:46.214Z,61.18
2019-02-04T11:48:16.421Z,61.98
2019-02-04T11:50:44.848Z,62.28
2019-02-04T11:53:13.306Z,61.85
2019-02-04T11:55:42.241Z,62.42
2019-02-04T11:58:11.031Z,62.94
2019-02-04T12:00:39.462Z,62.79
2019-02-04T12:03:08.725Z,63.43
2019-02-04T12:05:37.180Z,63.01
2019-02-04T12:08:05.656Z,62.72
2019-02-04T12:10:40.221Z,62.85
2019-02-04T12:13:08.969Z,61.99
2019-02-04T12:15:37.556Z,61.57
2019-02-04T12:18:06.251Z,62.43
2019-02-04T12:20:34.698Z,63.34
2019-02-04T12:23:05.288Z,62.72
2019-02-04T12:25:33.734Z,62.68
2019-02-04T12:28:02.162Z,63.06
2019-02-04T12:30:33.220Z,62.90
2019-02-04T12:33:02.360Z,61.72
2019-02-04T12:35:32.984Z,62.34
2019-02-04T12:38:01.675Z,61.70
2019-02-04T12:40:31.398Z,61.51
2019-02-04T12:42:59.822Z,60.56
2019-02-04T12:45:30.009Z,61.12
2019-02-04T12:48:00.834Z,60.43
2019-02-04T12:50:29.194Z,60.69
2019-02-04T12:52:57.617Z,59.13
2019-02-04T12:55:27.628Z,59.16
2019-02-04T12:57:56.063Z,59.17
2019-02-04T13:00:25.923Z,58.82
2019-02-04T13:02:54.416Z,58.62
2019-02-04T13:05:25.986Z,59.49
2019-02-04T13:07:54.463Z,58.29
2019-02-04T13:10:23.523Z,57.30
2019-02-04T13:12:51.967Z,57.70
2019-02-04T13:15:21.269Z,57.98
2019-02-04T13:17:49.691Z,57.45
2019-02-04T13:20:20.550Z,57.16
2019-02-04T13:22:49.283Z,57.41
2019-02-04T13:25:20.391Z,58.18
2019-02-04T13:27:48.876Z,58.53
2019-02-04T13:30:18.774Z,57.93
2019-02-04T13:32:47.494Z,58.09
2019-02-04T13:35:15.925Z,58.61
2019-02-04T13:37:44.417Z,58.57
2019-02-04T13:40:15.953Z,58.91
2019-02-04T13:42:44.394Z,58.76
2019-02-04T13:45:14.149Z,59.02
2019-02-04T13:47:42.890Z,59.12
2019-02-04T13:50:11.385Z,59.61
2019-02-04T13:52:40.159Z,59.78
2019-02-04T13:55:10.478Z,59.93
2019-02-04T13:57:39.175Z,59.96
2019-02-04T14:00:10.203Z,60.69
2019-02-04T14:02:38.638Z,60.88
2019-02-04T14:05:07.281Z,61.61
2019-02-04T14:07:35.706Z,61.66
2019-02-04T14:10:05.891Z,60.75
2019-02-04T14:12:34.659Z,61.13
2019-02-04T14:15:03.114Z,61.25
2019-02-04T14:17:31.539Z,61.25
2019-02-04T14:20:00.010Z,61.35
2019-02-04T14:22:29.050Z,60.93
2019-02-04T14:24:57.474Z,60.82
2019-02-04T14:27:26.242Z,61.16
2019-02-04T14:29:54.940Z,61.73
2019-02-04T14:32:23.377Z,61.62
2019-02-04T14:34:54.600Z,61.59
2019-02-04T14:37:22.271Z,62.07
2019-02-04T14:39:51.017Z,62.33
2019-02-04T14:42:19.473Z,62.31
2019-02-04T14:45:34.195Z,62.10
2019-02-04T14:48:42.578Z,62.17
2019-02-04T14:51:49.014Z,62.38
2019-02-04T14:54:53.215Z,62.61
2019-02-04T14:57:42.472Z,62.80
2019-02-04T15:00:34.700Z,62.87
2019-02-04T15:03:35.751Z,62.67
2019-02-04T15:06:28.517Z,62.47
2019-02-04T15:09:22.457Z,63.11
2019-02-04T15:12:35.986Z,63.37
2019-02-04T15:15:34.464Z,63.15
2019-02-04T15:18:36.674Z,63.56
2019-02-04T15:21:33.317Z,63.88
2019-02-04T15:24:33.937Z,63.70
2019-02-04T15:27:41.350Z,64.01
2019-02-04T15:30:47.477Z,63.90
2019-02-04T15:33:45.383Z,64.26
2019-02-04T15:36:29.930Z,64.67
2019-02-04T15:39:39.568Z,64.27
2019-02-04T15:42:43.604Z,64.62
2019-02-04T15:45:21.790Z,65.04
2019-02-04T15:48:00.746Z,64.98
2019-02-04T15:51:17.259Z,65.16
2019-02-04T15:53:45.937Z,64.86
2019-02-04T15:56:14.368Z,65.33
2019-02-04T15:58:42.833Z,65.03
2019-02-04T16:01:11.262Z,65.43
2019-02-04T16:03:39.728Z,65.26
2019-02-04T16:06:08.165Z,65.38
2019-02-04T16:08:36.872Z,65.46
2019-02-04T16:11:05.679Z,65.47
2019-02-04T16:13:36.319Z,65.68
2019-02-04T16:16:04.365Z,65.37
2019-02-04T16:18:32.860Z,65.48
2019-02-04T16:21:01.317Z,65.34
2019-02-04T16:23:29.775Z,65.27
2019-02-04T16:25:58.214Z,64.46
2019-02-04T16:28:26.760Z,64.58
2019-02-04T16:30:55.606Z,64.01
2019-02-04T16:33:24.751Z,64.28
2019-02-04T16:35:53.731Z,64.29
2019-02-04T16:38:22.290Z,65.23
2019-02-04T16:40:50.710Z,65.10
2019-02-04T16:45:53.049Z,64.75
2019-02-04T16:48:21.500Z,64.85
2019-02-04T16:50:59.256Z,64.46
2019-02-04T16:53:20.345Z,65.12
2019-02-04T16:55:50.612Z,64.76
2019-02-04T16:58:19.051Z,64.98
2019-02-04T17:00:47.692Z,65.80
2019-02-04T17:03:18.764Z,65.29
2019-02-04T17:05:46.629Z,65.56
2019-02-04T17:08:15.107Z,66.34
2019-02-04T17:10:43.525Z,66.25
2019-02-04T17:13:11.986Z,66.43
2019-02-04T17:15:40.441Z,66.23
2019-02-04T17:18:09.129Z,66.48
2019-02-04T17:20:37.573Z,66.36
2019-02-04T17:23:06.153Z,66.48
2019-02-04T17:25:34.903Z,66.43
2019-02-04T17:28:03.672Z,66.58
2019-02-04T17:30:32.513Z,67.06
2019-02-04T17:33:01.396Z,67.04
2019-02-04T17:35:29.850Z,67.18
2019-02-04T17:38:04.250Z,67.57
2019-02-04T17:40:33.088Z,67.39
2019-02-04T17:43:01.551Z,67.46
2019-02-04T17:45:30.257Z,67.58
2019-02-04T17:47:58.779Z,67.65
2019-02-04T17:50:27.229Z,68.11
2019-02-04T17:52:55.973Z,67.92
2019-02-04T17:55:25.162Z,67.95
2019-02-04T17:57:54.297Z,67.63
2019-02-04T18:00:38.535Z,67.76
2019-02-04T18:03:07.030Z,67.60
2019-02-04T18:05:35.625Z,67.48
2019-02-04T18:08:04.292Z,67.10
2019-02-04T18:10:33.106Z,66.89
2019-02-04T18:13:01.627Z,66.50
2019-02-04T18:15:30.455Z,66.58
2019-02-04T18:17:59.818Z,66.58
2019-02-04T18:20:30.607Z,66.37
2019-02-04T18:22:59.053Z,66.74
2019-02-04T18:25:28.099Z,66.40
2019-02-04T18:27:56.849Z,66.98
2019-02-04T18:30:25.810Z,66.74
2019-02-04T18:32:54.326Z,66.69
2019-02-04T18:35:23.059Z,66.62
2019-02-04T18:37:51.789Z,66.59
2019-02-04T18:40:20.237Z,66.91
2019-02-04T18:42:49.063Z,66.32
2019-02-04T18:45:28.536Z,66.10
2019-02-04T18:47:57.014Z,66.60
2019-02-04T18:50:26.186Z,66.62
2019-02-04T18:52:54.778Z,67.09
2019-02-04T18:55:28.297Z,66.51
2019-02-04T18:57:56.761Z,65.95
2019-02-04T19:00:26.834Z,66.44
2019-02-04T19:02:56.488Z,66.44
2019-02-04T19:05:26.836Z,66.57
2019-02-04T19:07:55.518Z,66.83
2019-02-04T19:10:23.966Z,66.11
2019-02-04T19:12:52.745Z,66.15
2019-02-04T19:15:22.331Z,65.58
2019-02-04T19:17:52.113Z,65.75
2019-02-04T19:20:21.914Z,66.19
2019-02-04T19:22:50.387Z,65.62
2019-02-04T19:25:19.525Z,65.64
2019-02-04T19:27:48.548Z,66.12
2019-02-04T19:30:44.511Z,65.36
2019-02-04T19:33:13.252Z,65.45
2019-02-04T19:35:42.059Z,64.33
2019-02-04T19:38:11.148Z,64.29
2019-02-04T19:40:39.605Z,63.72
2019-02-04T19:43:09.332Z,64.10
2019-02-04T19:45:37.814Z,64.08
2019-02-04T19:48:06.358Z,63.61
2019-02-04T19:50:34.860Z,63.00
2019-02-04T19:53:04.049Z,62.87
2019-02-04T19:55:32.874Z,63.24
2019-02-04T19:58:01.358Z,63.00
2019-02-04T20:00:30.206Z,63.32
2019-02-04T20:02:58.980Z,63.20
2019-02-04T20:05:27.586Z,63.58
2019-02-04T20:07:56.299Z,63.09
2019-02-04T20:10:25.803Z,62.68
2019-02-04T20:12:54.502Z,63.14
2019-02-04T20:15:25.518Z,63.70
2019-02-04T20:17:53.957Z,63.46
2019-02-04T20:20:22.405Z,63.57
2019-02-04T20:22:50.858Z,63.52
2019-02-04T20:25:22.173Z,63.91
2019-02-04T20:27:50.631Z,64.32
2019-02-04T20:30:21.796Z,63.65
2019-02-04T20:32:50.210Z,63.89
2019-02-04T20:35:18.697Z,63.33
2019-02-04T20:37:47.417Z,63.57
2019-02-04T20:40:17.434Z,63.66
2019-02-04T20:42:49.033Z,64.03
2019-02-04T20:45:17.578Z,64.34
2019-02-04T20:47:46.538Z,63.67
2019-02-04T20:50:23.445Z,63.65
2019-02-04T20:52:54.047Z,64.38
2019-02-04T20:55:22.948Z,64.68
2019-02-04T20:57:51.509Z,63.88
2019-02-04T21:00:22.336Z,64.40
2019-02-04T21:02:53.798Z,63.75
2019-02-04T21:05:22.441Z,63.76
2019-02-04T21:07:50.932Z,64.10
2019-02-04T21:10:20.930Z,63.84
2019-02-04T21:12:49.763Z,63.41
2019-02-04T21:15:18.981Z,64.32
2019-02-04T21:17:47.486Z,64.29
2019-02-04T21:20:18.442Z,63.40
2019-02-04T21:22:46.995Z,63.65
2019-02-04T21:25:15.836Z,63.27
2019-02-04T21:27:45.351Z,63.70
2019-02-04T21:30:21.323Z,63.68
2019-02-04T21:32:50.146Z,64.01
2019-02-04T21:35:18.880Z,63.74
2019-02-04T21:37:48.850Z,64.14
2019-02-04T21:40:18.081Z,64.72
2019-02-04T21:42:49.341Z,64.21
2019-02-04T21:45:20.266Z,63.96
2019-02-04T21:47:49.657Z,63.83
2019-02-04T21:50:19.961Z,63.58
2019-02-04T21:52:48.421Z,64.00
2019-02-04T21:55:17.509Z,63.88
2019-02-04T21:57:46.667Z,63.77
2019-02-04T22:00:17.465Z,63.10
2019-02-04T22:02:45.887Z,63.05
2019-02-04T22:05:15.501Z,63.43
2019-02-04T22:07:44.292Z,63.77
2019-02-04T22:10:15.605Z,63.65
2019-02-04T22:12:44.089Z,63.65
2019-02-04T22:15:12.582Z,63.75
2019-02-04T22:17:41.055Z,63.31
2019-02-04T22:20:10.670Z,63.63
2019-02-04T22:22:39.142Z,63.44
2019-02-04T22:25:19.413Z,63.64
2019-02-04T22:27:38.898Z,63.57
2019-02-04T22:30:13.473Z,63.24
2019-02-04T22:32:45.185Z,63.07
2019-02-04T22:35:13.684Z,63.20
2019-02-04T22:37:42.113Z,63.31
2019-02-04T22:40:16.420Z,62.80
2019-02-04T22:42:45.188Z,62.96
2019-02-04T22:45:14.460Z,62.90
2019-02-04T22:47:43.243Z,63.08
2019-02-04T22:50:18.541Z,63.11
2019-02-04T22:52:47.034Z,63.64
2019-02-04T22:55:16.051Z,63.75
2019-02-04T22:57:44.660Z,64.23
2019-02-04T23:00:43.856Z,64.67
2019-02-04T23:03:13.112Z,64.69
2019-02-04T23:05:41.551Z,66.04
2019-02-04T23:08:09.979Z,66.04
2019-02-04T23:10:38.789Z,65.93
2019-02-04T23:13:07.276Z,65.78
2019-02-04T23:15:35.731Z,65.88
2019-02-04T23:18:04.363Z,66.40
2019-02-04T23:20:32.805Z,66.43
2019-02-04T23:23:01.245Z,65.76
2019-02-04T23:25:29.694Z,66.01
2019-02-04T23:27:58.138Z,67.35
2019-02-04T23:30:26.591Z,66.01
2019-02-04T23:32:55.329Z,65.86
2019-02-04T23:35:24.458Z,67.16
2019-02-04T23:37:52.894Z,66.24
2019-02-04T23:40:21.354Z,65.88
2019-02-04T23:42:49.793Z,66.18
2019-02-04T23:45:18.546Z,66.84
2019-02-04T23:47:47.294Z,65.39
2019-02-04T23:50:16.189Z,65.80
2019-02-04T23:52:44.619Z,65.30
2019-02-04T23:55:13.122Z,66.26
2019-02-04T23:57:41.549Z,66.30
